sensor_id;sensor_type;location;lat;lon;timestamp;P1;durP1;ratioP1;P2;durP2;ratioP2
24685;SDS011;12804;51.176;4.452;2022-12-18T00:01:36;73.82;;;30.58;;
24685;SDS011;12804;51.176;4.452;2022-12-18T00:04:03;76.20;;;30.48;;
24685;SDS011;12804;51.176;4.452;2022-12-18T00:06:30;77.65;;;32.08;;
24685;SDS011;12804;51.176;4.452;2022-12-18T00:08:58;77.97;;;31.52;;
24685;SDS011;12804;51.176;4.452;2022-12-18T00:11:26;77.22;;;31.73;;
24685;SDS011;12804;51.176;4.452;2022-12-18T00:13:54;87.55;;;32.60;;
24685;SDS011;12804;51.176;4.452;2022-12-18T00:16:22;87.53;;;32.63;;
24685;SDS011;12804;51.176;4.452;2022-12-18T00:18:49;74.88;;;31.35;;
24685;SDS011;12804;51.176;4.452;2022-12-18T00:21:17;80.93;;;30.95;;
24685;SDS011;12804;51.176;4.452;2022-12-18T00:23:44;80.88;;;32.00;;
24685;SDS011;12804;51.176;4.452;2022-12-18T00:26:13;80.35;;;31.00;;
24685;SDS011;12804;51.176;4.452;2022-12-18T00:28:40;78.25;;;31.92;;
24685;SDS011;12804;51.176;4.452;2022-12-18T00:31:07;81.78;;;31.67;;
24685;SDS011;12804;51.176;4.452;2022-12-18T00:33:38;77.73;;;31.70;;
24685;SDS011;12804;51.176;4.452;2022-12-18T00:36:04;74.35;;;31.45;;
24685;SDS011;12804;51.176;4.452;2022-12-18T00:38:32;76.45;;;31.77;;
24685;SDS011;12804;51.176;4.452;2022-12-18T00:40:59;78.35;;;32.30;;
24685;SDS011;12804;51.176;4.452;2022-12-18T00:43:25;67.70;;;29.50;;
24685;SDS011;12804;51.176;4.452;2022-12-18T00:45:51;77.88;;;30.90;;
24685;SDS011;12804;51.176;4.452;2022-12-18T00:48:17;79.03;;;31.75;;
24685;SDS011;12804;51.176;4.452;2022-12-18T00:50:43;78.07;;;31.15;;
24685;SDS011;12804;51.176;4.452;2022-12-18T00:53:09;80.82;;;32.10;;
24685;SDS011;12804;51.176;4.452;2022-12-18T00:55:37;77.72;;;33.85;;
24685;SDS011;12804;51.176;4.452;2022-12-18T00:58:04;75.00;;;30.90;;
24685;SDS011;12804;51.176;4.452;2022-12-18T01:00:30;76.53;;;31.73;;
24685;SDS011;12804;51.176;4.452;2022-12-18T01:02:56;70.03;;;29.42;;
24685;SDS011;12804;51.176;4.452;2022-12-18T01:05:22;77.90;;;30.75;;
24685;SDS011;12804;51.176;4.452;2022-12-18T01:07:50;75.68;;;31.13;;
24685;SDS011;12804;51.176;4.452;2022-12-18T01:10:16;78.00;;;31.38;;
24685;SDS011;12804;51.176;4.452;2022-12-18T01:12:42;79.53;;;31.63;;
24685;SDS011;12804;51.176;4.452;2022-12-18T01:15:09;84.13;;;32.05;;
24685;SDS011;12804;51.176;4.452;2022-12-18T01:17:36;75.40;;;30.45;;
24685;SDS011;12804;51.176;4.452;2022-12-18T01:20:02;77.35;;;30.95;;
24685;SDS011;12804;51.176;4.452;2022-12-18T01:22:29;74.03;;;31.15;;
24685;SDS011;12804;51.176;4.452;2022-12-18T01:24:54;70.20;;;29.90;;
24685;SDS011;12804;51.176;4.452;2022-12-18T01:27:21;80.13;;;29.13;;
24685;SDS011;12804;51.176;4.452;2022-12-18T01:29:47;72.72;;;30.67;;
24685;SDS011;12804;51.176;4.452;2022-12-18T01:32:14;73.45;;;29.85;;
24685;SDS011;12804;51.176;4.452;2022-12-18T01:34:40;74.85;;;28.90;;
24685;SDS011;12804;51.176;4.452;2022-12-18T01:37:06;74.05;;;29.60;;
24685;SDS011;12804;51.176;4.452;2022-12-18T01:39:32;79.07;;;30.83;;
24685;SDS011;12804;51.176;4.452;2022-12-18T01:41:58;80.53;;;31.48;;
24685;SDS011;12804;51.176;4.452;2022-12-18T01:47:15;71.18;;;29.13;;
24685;SDS011;12804;51.176;4.452;2022-12-18T01:49:50;68.90;;;28.10;;
24685;SDS011;12804;51.176;4.452;2022-12-18T01:52:16;69.45;;;29.48;;
24685;SDS011;12804;51.176;4.452;2022-12-18T01:54:44;79.43;;;30.15;;
24685;SDS011;12804;51.176;4.452;2022-12-18T01:57:10;78.90;;;30.42;;
24685;SDS011;12804;51.176;4.452;2022-12-18T01:59:36;79.05;;;30.85;;
24685;SDS011;12804;51.176;4.452;2022-12-18T02:02:04;73.40;;;30.17;;
24685;SDS011;12804;51.176;4.452;2022-12-18T02:04:31;71.43;;;29.23;;
24685;SDS011;12804;51.176;4.452;2022-12-18T02:07:06;71.70;;;27.95;;
24685;SDS011;12804;51.176;4.452;2022-12-18T02:09:59;63.92;;;27.45;;
24685;SDS011;12804;51.176;4.452;2022-12-18T02:12:42;74.13;;;28.17;;
24685;SDS011;12804;51.176;4.452;2022-12-18T02:15:36;63.20;;;27.95;;
24685;SDS011;12804;51.176;4.452;2022-12-18T02:18:10;71.15;;;29.38;;
24685;SDS011;12804;51.176;4.452;2022-12-18T02:20:44;64.40;;;28.95;;
24685;SDS011;12804;51.176;4.452;2022-12-18T02:23:37;67.85;;;28.00;;
24685;SDS011;12804;51.176;4.452;2022-12-18T02:28:58;65.38;;;26.90;;
24685;SDS011;12804;51.176;4.452;2022-12-18T02:31:31;64.18;;;27.05;;
24685;SDS011;12804;51.176;4.452;2022-12-18T02:34:05;62.70;;;26.40;;
24685;SDS011;12804;51.176;4.452;2022-12-18T02:36:37;66.90;;;28.75;;
24685;SDS011;12804;51.176;4.452;2022-12-18T02:39:06;66.07;;;28.27;;
24685;SDS011;12804;51.176;4.452;2022-12-18T02:44:07;63.65;;;26.25;;
24685;SDS011;12804;51.176;4.452;2022-12-18T02:46:42;62.60;;;25.67;;
24685;SDS011;12804;51.176;4.452;2022-12-18T02:52:22;64.75;;;24.50;;
24685;SDS011;12804;51.176;4.452;2022-12-18T02:57:58;57.97;;;23.65;;
24685;SDS011;12804;51.176;4.452;2022-12-18T03:00:42;57.67;;;24.40;;
24685;SDS011;12804;51.176;4.452;2022-12-18T03:03:36;64.28;;;24.42;;
24685;SDS011;12804;51.176;4.452;2022-12-18T03:06:17;55.30;;;24.02;;
24685;SDS011;12804;51.176;4.452;2022-12-18T03:08:47;54.28;;;23.27;;
24685;SDS011;12804;51.176;4.452;2022-12-18T03:11:17;45.00;;;19.55;;
24685;SDS011;12804;51.176;4.452;2022-12-18T03:14:04;56.08;;;24.60;;
24685;SDS011;12804;51.176;4.452;2022-12-18T03:16:33;54.05;;;23.52;;
24685;SDS011;12804;51.176;4.452;2022-12-18T03:19:01;53.83;;;23.08;;
24685;SDS011;12804;51.176;4.452;2022-12-18T03:21:43;54.97;;;22.90;;
24685;SDS011;12804;51.176;4.452;2022-12-18T03:24:14;53.38;;;22.35;;
24685;SDS011;12804;51.176;4.452;2022-12-18T03:26:43;54.30;;;23.88;;
24685;SDS011;12804;51.176;4.452;2022-12-18T03:29:17;54.97;;;24.05;;
24685;SDS011;12804;51.176;4.452;2022-12-18T03:31:58;48.78;;;20.98;;
24685;SDS011;12804;51.176;4.452;2022-12-18T03:34:32;46.92;;;21.92;;
24685;SDS011;12804;51.176;4.452;2022-12-18T03:37:05;51.58;;;21.65;;
24685;SDS011;12804;51.176;4.452;2022-12-18T03:39:33;54.47;;;23.27;;
24685;SDS011;12804;51.176;4.452;2022-12-18T03:45:48;47.92;;;20.88;;
24685;SDS011;12804;51.176;4.452;2022-12-18T03:51:15;53.65;;;21.23;;
24685;SDS011;12804;51.176;4.452;2022-12-18T03:56:13;46.97;;;21.58;;
24685;SDS011;12804;51.176;4.452;2022-12-18T03:58:42;48.25;;;21.50;;
24685;SDS011;12804;51.176;4.452;2022-12-18T04:01:23;51.75;;;22.38;;
24685;SDS011;12804;51.176;4.452;2022-12-18T04:03:59;48.55;;;20.98;;
24685;SDS011;12804;51.176;4.452;2022-12-18T04:06:28;50.75;;;22.63;;
24685;SDS011;12804;51.176;4.452;2022-12-18T04:08:56;46.65;;;20.98;;
24685;SDS011;12804;51.176;4.452;2022-12-18T04:11:24;48.38;;;22.70;;
24685;SDS011;12804;51.176;4.452;2022-12-18T04:13:52;49.33;;;21.95;;
24685;SDS011;12804;51.176;4.452;2022-12-18T04:16:23;48.90;;;20.23;;
24685;SDS011;12804;51.176;4.452;2022-12-18T04:18:53;50.50;;;21.75;;
24685;SDS011;12804;51.176;4.452;2022-12-18T04:21:22;46.58;;;20.17;;
24685;SDS011;12804;51.176;4.452;2022-12-18T04:23:49;48.92;;;21.25;;
24685;SDS011;12804;51.176;4.452;2022-12-18T04:26:15;46.35;;;20.25;;
24685;SDS011;12804;51.176;4.452;2022-12-18T04:28:53;48.35;;;20.92;;
24685;SDS011;12804;51.176;4.452;2022-12-18T04:31:19;43.30;;;19.73;;
24685;SDS011;12804;51.176;4.452;2022-12-18T04:33:46;47.53;;;20.88;;
24685;SDS011;12804;51.176;4.452;2022-12-18T04:36:12;43.38;;;19.80;;
24685;SDS011;12804;51.176;4.452;2022-12-18T04:38:39;46.85;;;19.98;;
24685;SDS011;12804;51.176;4.452;2022-12-18T04:41:09;42.20;;;19.00;;
24685;SDS011;12804;51.176;4.452;2022-12-18T04:43:35;40.08;;;19.38;;
24685;SDS011;12804;51.176;4.452;2022-12-18T04:46:05;39.63;;;18.27;;
24685;SDS011;12804;51.176;4.452;2022-12-18T04:48:32;41.65;;;18.27;;
24685;SDS011;12804;51.176;4.452;2022-12-18T04:50:58;38.72;;;17.30;;
24685;SDS011;12804;51.176;4.452;2022-12-18T04:53:24;37.35;;;18.02;;
24685;SDS011;12804;51.176;4.452;2022-12-18T04:55:50;44.55;;;18.90;;
24685;SDS011;12804;51.176;4.452;2022-12-18T04:58:16;38.40;;;17.92;;
24685;SDS011;12804;51.176;4.452;2022-12-18T05:00:41;40.05;;;17.75;;
24685;SDS011;12804;51.176;4.452;2022-12-18T05:03:07;36.85;;;17.13;;
24685;SDS011;12804;51.176;4.452;2022-12-18T05:05:34;38.38;;;18.50;;
24685;SDS011;12804;51.176;4.452;2022-12-18T05:08:00;39.38;;;18.38;;
24685;SDS011;12804;51.176;4.452;2022-12-18T05:10:26;34.83;;;17.88;;
24685;SDS011;12804;51.176;4.452;2022-12-18T05:12:52;37.20;;;17.00;;
24685;SDS011;12804;51.176;4.452;2022-12-18T05:15:30;37.83;;;17.75;;
24685;SDS011;12804;51.176;4.452;2022-12-18T05:17:57;41.25;;;18.02;;
24685;SDS011;12804;51.176;4.452;2022-12-18T05:20:24;37.25;;;17.30;;
24685;SDS011;12804;51.176;4.452;2022-12-18T05:22:51;35.55;;;16.92;;
24685;SDS011;12804;51.176;4.452;2022-12-18T05:25:17;34.10;;;17.52;;
24685;SDS011;12804;51.176;4.452;2022-12-18T05:27:43;35.72;;;16.25;;
24685;SDS011;12804;51.176;4.452;2022-12-18T05:30:10;38.95;;;17.45;;
24685;SDS011;12804;51.176;4.452;2022-12-18T05:32:37;37.65;;;17.05;;
24685;SDS011;12804;51.176;4.452;2022-12-18T05:35:03;37.03;;;16.85;;
24685;SDS011;12804;51.176;4.452;2022-12-18T05:37:30;38.85;;;17.45;;
24685;SDS011;12804;51.176;4.452;2022-12-18T05:39:56;35.88;;;16.75;;
24685;SDS011;12804;51.176;4.452;2022-12-18T05:42:22;36.92;;;16.95;;
24685;SDS011;12804;51.176;4.452;2022-12-18T05:44:48;37.13;;;16.90;;
24685;SDS011;12804;51.176;4.452;2022-12-18T05:47:13;36.95;;;16.58;;
24685;SDS011;12804;51.176;4.452;2022-12-18T05:49:39;35.85;;;16.95;;
24685;SDS011;12804;51.176;4.452;2022-12-18T05:52:05;32.30;;;15.45;;
24685;SDS011;12804;51.176;4.452;2022-12-18T05:54:31;34.72;;;16.23;;
24685;SDS011;12804;51.176;4.452;2022-12-18T05:56:57;36.25;;;15.80;;
24685;SDS011;12804;51.176;4.452;2022-12-18T05:59:23;31.67;;;15.85;;
24685;SDS011;12804;51.176;4.452;2022-12-18T06:01:49;35.70;;;16.17;;
24685;SDS011;12804;51.176;4.452;2022-12-18T06:04:15;32.85;;;16.02;;
24685;SDS011;12804;51.176;4.452;2022-12-18T06:06:41;32.22;;;15.65;;
24685;SDS011;12804;51.176;4.452;2022-12-18T06:09:07;32.83;;;14.82;;
24685;SDS011;12804;51.176;4.452;2022-12-18T06:11:37;31.92;;;15.73;;
24685;SDS011;12804;51.176;4.452;2022-12-18T06:14:04;32.95;;;15.85;;
24685;SDS011;12804;51.176;4.452;2022-12-18T06:16:31;33.28;;;15.07;;
24685;SDS011;12804;51.176;4.452;2022-12-18T06:18:58;35.55;;;16.05;;
24685;SDS011;12804;51.176;4.452;2022-12-18T06:21:25;32.35;;;15.82;;
24685;SDS011;12804;51.176;4.452;2022-12-18T06:23:51;31.85;;;15.30;;
24685;SDS011;12804;51.176;4.452;2022-12-18T06:26:17;34.50;;;15.45;;
24685;SDS011;12804;51.176;4.452;2022-12-18T06:28:43;33.97;;;15.90;;
24685;SDS011;12804;51.176;4.452;2022-12-18T06:31:10;29.73;;;14.45;;
24685;SDS011;12804;51.176;4.452;2022-12-18T06:33:36;33.17;;;14.93;;
24685;SDS011;12804;51.176;4.452;2022-12-18T06:36:07;32.78;;;15.20;;
24685;SDS011;12804;51.176;4.452;2022-12-18T06:38:35;33.78;;;15.43;;
24685;SDS011;12804;51.176;4.452;2022-12-18T06:41:07;32.75;;;15.63;;
24685;SDS011;12804;51.176;4.452;2022-12-18T06:43:34;34.25;;;14.57;;
24685;SDS011;12804;51.176;4.452;2022-12-18T06:46:01;30.77;;;14.18;;
24685;SDS011;12804;51.176;4.452;2022-12-18T06:48:27;29.58;;;14.07;;
24685;SDS011;12804;51.176;4.452;2022-12-18T06:50:53;29.63;;;14.65;;
24685;SDS011;12804;51.176;4.452;2022-12-18T06:53:19;28.13;;;14.07;;
24685;SDS011;12804;51.176;4.452;2022-12-18T06:55:45;28.75;;;13.57;;
24685;SDS011;12804;51.176;4.452;2022-12-18T06:58:11;28.48;;;12.90;;
24685;SDS011;12804;51.176;4.452;2022-12-18T07:00:37;28.77;;;15.20;;
24685;SDS011;12804;51.176;4.452;2022-12-18T07:03:02;31.52;;;14.68;;
24685;SDS011;12804;51.176;4.452;2022-12-18T07:05:28;29.38;;;13.32;;
24685;SDS011;12804;51.176;4.452;2022-12-18T07:07:54;27.35;;;13.18;;
24685;SDS011;12804;51.176;4.452;2022-12-18T07:10:20;25.33;;;13.40;;
24685;SDS011;12804;51.176;4.452;2022-12-18T07:12:46;27.95;;;13.32;;
24685;SDS011;12804;51.176;4.452;2022-12-18T07:15:12;28.95;;;14.07;;
24685;SDS011;12804;51.176;4.452;2022-12-18T07:17:37;30.58;;;14.10;;
24685;SDS011;12804;51.176;4.452;2022-12-18T07:20:03;32.15;;;14.25;;
24685;SDS011;12804;51.176;4.452;2022-12-18T07:22:30;31.23;;;13.70;;
24685;SDS011;12804;51.176;4.452;2022-12-18T07:24:56;27.35;;;13.60;;
24685;SDS011;12804;51.176;4.452;2022-12-18T07:27:22;27.98;;;14.32;;
24685;SDS011;12804;51.176;4.452;2022-12-18T07:29:48;31.83;;;14.70;;
24685;SDS011;12804;51.176;4.452;2022-12-18T07:32:14;28.55;;;13.75;;
24685;SDS011;12804;51.176;4.452;2022-12-18T07:34:39;32.13;;;14.43;;
24685;SDS011;12804;51.176;4.452;2022-12-18T07:37:05;26.48;;;13.98;;
24685;SDS011;12804;51.176;4.452;2022-12-18T07:39:31;33.38;;;14.10;;
24685;SDS011;12804;51.176;4.452;2022-12-18T07:41:57;28.98;;;12.63;;
24685;SDS011;12804;51.176;4.452;2022-12-18T07:44:42;26.55;;;13.60;;
24685;SDS011;12804;51.176;4.452;2022-12-18T07:47:08;26.52;;;13.25;;
24685;SDS011;12804;51.176;4.452;2022-12-18T07:49:34;30.23;;;13.65;;
24685;SDS011;12804;51.176;4.452;2022-12-18T07:51:59;27.23;;;13.27;;
24685;SDS011;12804;51.176;4.452;2022-12-18T07:54:26;29.05;;;14.07;;
24685;SDS011;12804;51.176;4.452;2022-12-18T07:56:52;24.58;;;12.95;;
24685;SDS011;12804;51.176;4.452;2022-12-18T07:59:18;27.02;;;13.20;;
24685;SDS011;12804;51.176;4.452;2022-12-18T08:01:44;25.95;;;12.90;;
24685;SDS011;12804;51.176;4.452;2022-12-18T08:04:10;24.65;;;11.63;;
24685;SDS011;12804;51.176;4.452;2022-12-18T08:06:36;25.95;;;13.50;;
24685;SDS011;12804;51.176;4.452;2022-12-18T08:09:01;29.40;;;13.10;;
24685;SDS011;12804;51.176;4.452;2022-12-18T08:11:28;24.42;;;12.52;;
24685;SDS011;12804;51.176;4.452;2022-12-18T08:13:54;26.20;;;13.02;;
24685;SDS011;12804;51.176;4.452;2022-12-18T08:16:21;28.95;;;13.02;;
24685;SDS011;12804;51.176;4.452;2022-12-18T08:18:47;30.02;;;12.82;;
24685;SDS011;12804;51.176;4.452;2022-12-18T08:21:14;29.60;;;12.73;;
24685;SDS011;12804;51.176;4.452;2022-12-18T08:23:48;24.02;;;12.38;;
24685;SDS011;12804;51.176;4.452;2022-12-18T08:26:15;22.05;;;12.07;;
24685;SDS011;12804;51.176;4.452;2022-12-18T08:28:41;22.40;;;11.88;;
24685;SDS011;12804;51.176;4.452;2022-12-18T08:31:07;24.90;;;12.50;;
24685;SDS011;12804;51.176;4.452;2022-12-18T08:33:34;23.25;;;11.77;;
24685;SDS011;12804;51.176;4.452;2022-12-18T08:36:00;24.70;;;11.63;;
24685;SDS011;12804;51.176;4.452;2022-12-18T08:38:26;23.67;;;11.82;;
24685;SDS011;12804;51.176;4.452;2022-12-18T08:41:03;24.85;;;12.77;;
24685;SDS011;12804;51.176;4.452;2022-12-18T08:43:30;22.27;;;11.88;;
24685;SDS011;12804;51.176;4.452;2022-12-18T08:46:15;24.05;;;12.27;;
24685;SDS011;12804;51.176;4.452;2022-12-18T08:48:42;25.95;;;11.85;;
24685;SDS011;12804;51.176;4.452;2022-12-18T08:51:07;20.38;;;11.68;;
24685;SDS011;12804;51.176;4.452;2022-12-18T08:53:35;20.17;;;11.60;;
24685;SDS011;12804;51.176;4.452;2022-12-18T08:56:01;22.00;;;11.75;;
24685;SDS011;12804;51.176;4.452;2022-12-18T08:58:28;21.50;;;11.85;;
24685;SDS011;12804;51.176;4.452;2022-12-18T09:00:54;23.83;;;11.95;;
24685;SDS011;12804;51.176;4.452;2022-12-18T09:03:24;21.52;;;11.93;;
24685;SDS011;12804;51.176;4.452;2022-12-18T09:05:50;23.85;;;11.73;;
24685;SDS011;12804;51.176;4.452;2022-12-18T09:08:15;18.80;;;11.02;;
24685;SDS011;12804;51.176;4.452;2022-12-18T09:10:42;23.58;;;11.40;;
24685;SDS011;12804;51.176;4.452;2022-12-18T09:13:13;20.60;;;11.13;;
24685;SDS011;12804;51.176;4.452;2022-12-18T09:15:43;21.90;;;11.55;;
24685;SDS011;12804;51.176;4.452;2022-12-18T09:18:11;21.98;;;11.77;;
24685;SDS011;12804;51.176;4.452;2022-12-18T09:20:38;21.38;;;11.60;;
24685;SDS011;12804;51.176;4.452;2022-12-18T09:23:04;25.35;;;12.90;;
24685;SDS011;12804;51.176;4.452;2022-12-18T09:25:30;20.45;;;11.00;;
24685;SDS011;12804;51.176;4.452;2022-12-18T09:27:59;25.48;;;12.13;;
24685;SDS011;12804;51.176;4.452;2022-12-18T09:30:26;23.60;;;10.82;;
24685;SDS011;12804;51.176;4.452;2022-12-18T09:32:52;20.45;;;11.85;;
24685;SDS011;12804;51.176;4.452;2022-12-18T09:35:19;21.63;;;11.68;;
24685;SDS011;12804;51.176;4.452;2022-12-18T09:37:44;22.30;;;12.13;;
24685;SDS011;12804;51.176;4.452;2022-12-18T09:40:14;18.55;;;10.75;;
24685;SDS011;12804;51.176;4.452;2022-12-18T09:42:45;18.75;;;10.50;;
24685;SDS011;12804;51.176;4.452;2022-12-18T09:45:20;21.20;;;11.13;;
24685;SDS011;12804;51.176;4.452;2022-12-18T09:47:47;19.42;;;10.90;;
24685;SDS011;12804;51.176;4.452;2022-12-18T09:50:38;16.85;;;10.63;;
24685;SDS011;12804;51.176;4.452;2022-12-18T09:53:05;17.95;;;10.75;;
24685;SDS011;12804;51.176;4.452;2022-12-18T09:55:37;21.70;;;10.80;;
24685;SDS011;12804;51.176;4.452;2022-12-18T09:58:17;21.63;;;11.05;;
24685;SDS011;12804;51.176;4.452;2022-12-18T10:01:09;23.42;;;10.75;;
24685;SDS011;12804;51.176;4.452;2022-12-18T10:03:37;19.15;;;11.40;;
24685;SDS011;12804;51.176;4.452;2022-12-18T10:06:17;21.65;;;11.85;;
24685;SDS011;12804;51.176;4.452;2022-12-18T10:14:06;19.75;;;11.80;;
24685;SDS011;12804;51.176;4.452;2022-12-18T10:22:18;20.88;;;10.95;;
24685;SDS011;12804;51.176;4.452;2022-12-18T10:28:12;17.20;;;11.15;;
24685;SDS011;12804;51.176;4.452;2022-12-18T10:30:40;19.40;;;10.90;;
24685;SDS011;12804;51.176;4.452;2022-12-18T10:33:14;19.90;;;11.40;;
24685;SDS011;12804;51.176;4.452;2022-12-18T10:35:46;16.95;;;10.18;;
24685;SDS011;12804;51.176;4.452;2022-12-18T10:43:15;20.73;;;10.30;;
24685;SDS011;12804;51.176;4.452;2022-12-18T10:45:49;18.45;;;10.00;;
24685;SDS011;12804;51.176;4.452;2022-12-18T10:48:25;19.38;;;10.73;;
24685;SDS011;12804;51.176;4.452;2022-12-18T10:50:51;18.98;;;10.98;;
24685;SDS011;12804;51.176;4.452;2022-12-18T10:53:22;17.80;;;10.50;;
24685;SDS011;12804;51.176;4.452;2022-12-18T10:55:53;17.42;;;10.32;;
24685;SDS011;12804;51.176;4.452;2022-12-18T11:06:23;17.45;;;10.40;;
24685;SDS011;12804;51.176;4.452;2022-12-18T11:08:57;16.30;;;10.40;;
24685;SDS011;12804;51.176;4.452;2022-12-18T11:11:31;17.00;;;10.40;;
24685;SDS011;12804;51.176;4.452;2022-12-18T11:16:50;18.10;;;10.65;;
24685;SDS011;12804;51.176;4.452;2022-12-18T11:19:28;21.05;;;10.80;;
24685;SDS011;12804;51.176;4.452;2022-12-18T11:21:58;17.88;;;10.73;;
24685;SDS011;12804;51.176;4.452;2022-12-18T11:24:29;19.73;;;11.15;;
24685;SDS011;12804;51.176;4.452;2022-12-18T11:27:00;19.08;;;11.07;;
24685;SDS011;12804;51.176;4.452;2022-12-18T11:29:33;12.93;;;7.97;;
24685;SDS011;12804;51.176;4.452;2022-12-18T11:32:45;18.17;;;10.80;;
24685;SDS011;12804;51.176;4.452;2022-12-18T11:35:01;17.73;;;10.80;;
24685;SDS011;12804;51.176;4.452;2022-12-18T11:37:34;17.98;;;10.75;;
24685;SDS011;12804;51.176;4.452;2022-12-18T11:40:03;18.95;;;10.80;;
24685;SDS011;12804;51.176;4.452;2022-12-18T11:42:48;19.52;;;11.05;;
24685;SDS011;12804;51.176;4.452;2022-12-18T11:45:30;20.30;;;11.73;;
24685;SDS011;12804;51.176;4.452;2022-12-18T11:48:05;19.77;;;10.85;;
24685;SDS011;12804;51.176;4.452;2022-12-18T11:51:03;15.05;;;9.80;;
24685;SDS011;12804;51.176;4.452;2022-12-18T11:53:34;18.15;;;10.43;;
24685;SDS011;12804;51.176;4.452;2022-12-18T12:04:27;16.85;;;10.60;;
24685;SDS011;12804;51.176;4.452;2022-12-18T12:38:36;17.80;;;11.48;;
24685;SDS011;12804;51.176;4.452;2022-12-18T12:41:12;17.17;;;10.70;;
24685;SDS011;12804;51.176;4.452;2022-12-18T12:44:01;20.23;;;11.82;;
24685;SDS011;12804;51.176;4.452;2022-12-18T12:46:30;17.55;;;11.35;;
24685;SDS011;12804;51.176;4.452;2022-12-18T12:49:02;18.93;;;11.77;;
24685;SDS011;12804;51.176;4.452;2022-12-18T12:51:33;18.02;;;11.45;;
24685;SDS011;12804;51.176;4.452;2022-12-18T12:54:02;17.40;;;11.38;;
24685;SDS011;12804;51.176;4.452;2022-12-18T13:02:28;18.52;;;11.27;;
24685;SDS011;12804;51.176;4.452;2022-12-18T13:05:06;17.73;;;11.65;;
24685;SDS011;12804;51.176;4.452;2022-12-18T13:10:23;18.08;;;11.25;;
24685;SDS011;12804;51.176;4.452;2022-12-18T13:13:08;18.83;;;11.35;;
24685;SDS011;12804;51.176;4.452;2022-12-18T13:25:49;19.92;;;12.18;;
24685;SDS011;12804;51.176;4.452;2022-12-18T13:31:57;20.98;;;11.38;;
24685;SDS011;12804;51.176;4.452;2022-12-18T13:36:46;21.20;;;12.18;;
24685;SDS011;12804;51.176;4.452;2022-12-18T13:41:39;18.90;;;12.63;;
24685;SDS011;12804;51.176;4.452;2022-12-18T13:47:01;18.52;;;11.98;;
24685;SDS011;12804;51.176;4.452;2022-12-18T13:52:03;19.40;;;12.48;;
24685;SDS011;12804;51.176;4.452;2022-12-18T13:54:47;20.33;;;12.40;;
24685;SDS011;12804;51.176;4.452;2022-12-18T13:57:39;18.75;;;12.27;;
24685;SDS011;12804;51.176;4.452;2022-12-18T14:02:48;19.27;;;11.95;;
24685;SDS011;12804;51.176;4.452;2022-12-18T14:05:29;17.83;;;12.02;;
24685;SDS011;12804;51.176;4.452;2022-12-18T14:08:04;21.02;;;12.68;;
24685;SDS011;12804;51.176;4.452;2022-12-18T14:10:33;19.58;;;12.88;;
24685;SDS011;12804;51.176;4.452;2022-12-18T14:13:03;19.48;;;12.50;;
24685;SDS011;12804;51.176;4.452;2022-12-18T14:15:31;15.20;;;9.20;;
24685;SDS011;12804;51.176;4.452;2022-12-18T14:20:35;20.98;;;12.57;;
24685;SDS011;12804;51.176;4.452;2022-12-18T14:23:02;25.00;;;15.52;;
24685;SDS011;12804;51.176;4.452;2022-12-18T14:25:28;29.65;;;15.25;;
24685;SDS011;12804;51.176;4.452;2022-12-18T14:30:37;24.98;;;14.38;;
24685;SDS011;12804;51.176;4.452;2022-12-18T14:35:36;24.40;;;14.35;;
24685;SDS011;12804;51.176;4.452;2022-12-18T14:40:57;22.00;;;13.50;;
24685;SDS011;12804;51.176;4.452;2022-12-18T14:43:25;21.10;;;13.23;;
24685;SDS011;12804;51.176;4.452;2022-12-18T14:45:56;20.65;;;14.02;;
24685;SDS011;12804;51.176;4.452;2022-12-18T14:48:42;23.17;;;14.07;;
24685;SDS011;12804;51.176;4.452;2022-12-18T14:51:31;20.63;;;13.40;;
24685;SDS011;12804;51.176;4.452;2022-12-18T14:54:06;21.23;;;13.77;;
24685;SDS011;12804;51.176;4.452;2022-12-18T14:56:51;24.35;;;14.15;;
24685;SDS011;12804;51.176;4.452;2022-12-18T14:59:24;21.85;;;14.27;;
24685;SDS011;12804;51.176;4.452;2022-12-18T15:04:43;22.55;;;14.25;;
24685;SDS011;12804;51.176;4.452;2022-12-18T15:07:11;23.90;;;14.35;;
24685;SDS011;12804;51.176;4.452;2022-12-18T15:09:39;22.10;;;13.68;;
24685;SDS011;12804;51.176;4.452;2022-12-18T15:12:26;24.35;;;14.60;;
24685;SDS011;12804;51.176;4.452;2022-12-18T15:14:57;26.60;;;15.23;;
24685;SDS011;12804;51.176;4.452;2022-12-18T15:17:23;24.83;;;15.20;;
24685;SDS011;12804;51.176;4.452;2022-12-18T15:19:53;25.88;;;15.40;;
24685;SDS011;12804;51.176;4.452;2022-12-18T15:24:53;25.05;;;14.88;;
24685;SDS011;12804;51.176;4.452;2022-12-18T15:32:38;24.50;;;14.38;;
24685;SDS011;12804;51.176;4.452;2022-12-18T15:35:12;25.27;;;15.48;;
24685;SDS011;12804;51.176;4.452;2022-12-18T15:37:39;26.58;;;15.27;;
24685;SDS011;12804;51.176;4.452;2022-12-18T15:40:05;27.85;;;15.25;;
24685;SDS011;12804;51.176;4.452;2022-12-18T15:42:32;26.25;;;15.40;;
24685;SDS011;12804;51.176;4.452;2022-12-18T15:45:17;27.45;;;15.57;;
24685;SDS011;12804;51.176;4.452;2022-12-18T15:47:43;23.67;;;14.75;;
24685;SDS011;12804;51.176;4.452;2022-12-18T15:50:09;26.38;;;15.43;;
24685;SDS011;12804;51.176;4.452;2022-12-18T15:52:46;25.63;;;15.60;;
24685;SDS011;12804;51.176;4.452;2022-12-18T15:55:16;24.70;;;14.55;;
24685;SDS011;12804;51.176;4.452;2022-12-18T15:58:02;27.33;;;16.15;;
24685;SDS011;12804;51.176;4.452;2022-12-18T16:00:28;26.63;;;15.55;;
24685;SDS011;12804;51.176;4.452;2022-12-18T16:02:54;25.65;;;14.77;;
24685;SDS011;12804;51.176;4.452;2022-12-18T16:05:20;28.10;;;16.13;;
24685;SDS011;12804;51.176;4.452;2022-12-18T16:07:47;29.50;;;15.57;;
24685;SDS011;12804;51.176;4.452;2022-12-18T16:10:13;24.02;;;14.75;;
24685;SDS011;12804;51.176;4.452;2022-12-18T16:12:39;26.48;;;15.75;;
24685;SDS011;12804;51.176;4.452;2022-12-18T16:15:06;27.13;;;15.40;;
24685;SDS011;12804;51.176;4.452;2022-12-18T16:17:33;27.30;;;15.80;;
24685;SDS011;12804;51.176;4.452;2022-12-18T16:19:59;26.98;;;15.98;;
24685;SDS011;12804;51.176;4.452;2022-12-18T16:22:25;30.65;;;16.60;;
24685;SDS011;12804;51.176;4.452;2022-12-18T16:24:53;29.10;;;16.35;;
24685;SDS011;12804;51.176;4.452;2022-12-18T16:27:20;27.75;;;15.60;;
24685;SDS011;12804;51.176;4.452;2022-12-18T16:29:46;26.75;;;15.65;;
24685;SDS011;12804;51.176;4.452;2022-12-18T16:32:15;28.45;;;16.45;;
24685;SDS011;12804;51.176;4.452;2022-12-18T16:34:43;28.90;;;16.27;;
24685;SDS011;12804;51.176;4.452;2022-12-18T16:37:10;27.42;;;15.80;;
24685;SDS011;12804;51.176;4.452;2022-12-18T16:39:37;30.15;;;17.08;;
24685;SDS011;12804;51.176;4.452;2022-12-18T16:42:05;28.88;;;15.77;;
24685;SDS011;12804;51.176;4.452;2022-12-18T16:44:39;27.80;;;16.65;;
24685;SDS011;12804;51.176;4.452;2022-12-18T16:47:06;27.25;;;16.38;;
24685;SDS011;12804;51.176;4.452;2022-12-18T16:49:31;29.35;;;16.10;;
24685;SDS011;12804;51.176;4.452;2022-12-18T16:51:57;28.58;;;16.75;;
24685;SDS011;12804;51.176;4.452;2022-12-18T16:54:23;30.98;;;16.67;;
24685;SDS011;12804;51.176;4.452;2022-12-18T16:56:49;29.42;;;16.77;;
24685;SDS011;12804;51.176;4.452;2022-12-18T16:59:16;28.55;;;16.20;;
24685;SDS011;12804;51.176;4.452;2022-12-18T17:01:43;29.52;;;16.55;;
24685;SDS011;12804;51.176;4.452;2022-12-18T17:04:08;28.58;;;16.45;;
24685;SDS011;12804;51.176;4.452;2022-12-18T17:06:35;29.40;;;16.52;;